sensor_id;sensor_type;location;lat;lon;timestamp;P1;durP1;ratioP1;P2;durP2;ratioP2
24517;SDS011;12678;51.336;12.406;2023-03-14T00:00:35;0.85;;;0.80;;
24517;SDS011;12678;51.336;12.406;2023-03-14T00:03:00;3.00;;;0.77;;
24517;SDS011;12678;51.336;12.406;2023-03-14T00:05:26;1.25;;;0.82;;
24517;SDS011;12678;51.336;12.406;2023-03-14T00:07:52;1.15;;;0.88;;
24517;SDS011;12678;51.336;12.406;2023-03-14T00:10:17;1.25;;;0.95;;
24517;SDS011;12678;51.336;12.406;2023-03-14T00:12:43;1.30;;;0.93;;
24517;SDS011;12678;51.336;12.406;2023-03-14T00:15:10;0.90;;;0.70;;
24517;SDS011;12678;51.336;12.406;2023-03-14T00:17:37;3.40;;;0.80;;
24517;SDS011;12678;51.336;12.406;2023-03-14T00:20:03;7.10;;;0.60;;
24517;SDS011;12678;51.336;12.406;2023-03-14T00:22:36;1.15;;;0.93;;
24517;SDS011;12678;51.336;12.406;2023-03-14T00:25:02;0.70;;;0.70;;
24517;SDS011;12678;51.336;12.406;2023-03-14T00:27:29;1.52;;;1.10;;
24517;SDS011;12678;51.336;12.406;2023-03-14T00:29:55;3.28;;;1.02;;
24517;SDS011;12678;51.336;12.406;2023-03-14T00:32:20;1.17;;;0.60;;
24517;SDS011;12678;51.336;12.406;2023-03-14T00:34:47;0.98;;;0.80;;
24517;SDS011;12678;51.336;12.406;2023-03-14T00:37:12;1.05;;;0.90;;
24517;SDS011;12678;51.336;12.406;2023-03-14T00:39:38;5.07;;;2.45;;
24517;SDS011;12678;51.336;12.406;2023-03-14T00:42:04;4.68;;;2.40;;
24517;SDS011;12678;51.336;12.406;2023-03-14T00:44:29;2.25;;;1.30;;
24517;SDS011;12678;51.336;12.406;2023-03-14T00:46:56;1.58;;;1.08;;
24517;SDS011;12678;51.336;12.406;2023-03-14T00:49:23;1.05;;;0.80;;
24517;SDS011;12678;51.336;12.406;2023-03-14T00:51:49;1.08;;;0.52;;
24517;SDS011;12678;51.336;12.406;2023-03-14T00:54:16;0.52;;;0.50;;
24517;SDS011;12678;51.336;12.406;2023-03-14T00:56:42;0.70;;;0.70;;
24517;SDS011;12678;51.336;12.406;2023-03-14T00:59:08;0.80;;;0.80;;
24517;SDS011;12678;51.336;12.406;2023-03-14T01:01:34;1.33;;;0.88;;
24517;SDS011;12678;51.336;12.406;2023-03-14T01:04:00;0.82;;;0.80;;
24517;SDS011;12678;51.336;12.406;2023-03-14T01:06:26;0.60;;;0.60;;
24517;SDS011;12678;51.336;12.406;2023-03-14T01:08:53;1.30;;;1.00;;
24517;SDS011;12678;51.336;12.406;2023-03-14T01:11:23;0.68;;;0.50;;
24517;SDS011;12678;51.336;12.406;2023-03-14T01:13:54;1.65;;;0.80;;
24517;SDS011;12678;51.336;12.406;2023-03-14T01:16:20;0.70;;;0.70;;
24517;SDS011;12678;51.336;12.406;2023-03-14T01:18:47;1.58;;;0.80;;
24517;SDS011;12678;51.336;12.406;2023-03-14T01:21:14;0.68;;;0.68;;
24517;SDS011;12678;51.336;12.406;2023-03-14T01:23:40;0.80;;;0.70;;
24517;SDS011;12678;51.336;12.406;2023-03-14T01:26:10;0.60;;;0.60;;
24517;SDS011;12678;51.336;12.406;2023-03-14T01:28:38;2.22;;;0.82;;
24517;SDS011;12678;51.336;12.406;2023-03-14T01:31:05;0.40;;;0.40;;
24517;SDS011;12678;51.336;12.406;2023-03-14T01:33:32;0.80;;;0.80;;
24517;SDS011;12678;51.336;12.406;2023-03-14T01:35:58;0.50;;;0.50;;
24517;SDS011;12678;51.336;12.406;2023-03-14T01:38:24;0.63;;;0.63;;
24517;SDS011;12678;51.336;12.406;2023-03-14T01:40:49;0.45;;;0.45;;
24517;SDS011;12678;51.336;12.406;2023-03-14T01:43:16;1.08;;;0.75;;
24517;SDS011;12678;51.336;12.406;2023-03-14T01:48:28;0.60;;;0.60;;
24517;SDS011;12678;51.336;12.406;2023-03-14T01:51:08;0.40;;;0.40;;
24517;SDS011;12678;51.336;12.406;2023-03-14T01:53:38;2.63;;;0.65;;
24517;SDS011;12678;51.336;12.406;2023-03-14T01:56:08;0.32;;;0.32;;
24517;SDS011;12678;51.336;12.406;2023-03-14T01:58:36;0.45;;;0.45;;
24517;SDS011;12678;51.336;12.406;2023-03-14T02:01:04;1.08;;;0.57;;
24517;SDS011;12678;51.336;12.406;2023-03-14T02:03:31;0.75;;;0.60;;
24517;SDS011;12678;51.336;12.406;2023-03-14T02:06:09;0.47;;;0.47;;
24517;SDS011;12678;51.336;12.406;2023-03-14T02:08:36;0.63;;;0.60;;
24517;SDS011;12678;51.336;12.406;2023-03-14T02:11:04;0.60;;;0.60;;
24517;SDS011;12678;51.336;12.406;2023-03-14T02:13:32;0.50;;;0.47;;
24517;SDS011;12678;51.336;12.406;2023-03-14T02:15:58;0.77;;;0.73;;
24517;SDS011;12678;51.336;12.406;2023-03-14T02:18:24;0.40;;;0.40;;
24517;SDS011;12678;51.336;12.406;2023-03-14T02:20:54;0.50;;;0.50;;
24517;SDS011;12678;51.336;12.406;2023-03-14T02:23:35;0.43;;;0.43;;
24517;SDS011;12678;51.336;12.406;2023-03-14T02:29:15;0.50;;;0.50;;
24517;SDS011;12678;51.336;12.406;2023-03-14T02:31:41;0.50;;;0.43;;
24517;SDS011;12678;51.336;12.406;2023-03-14T02:34:07;1.55;;;0.77;;
24517;SDS011;12678;51.336;12.406;2023-03-14T02:36:33;0.80;;;0.68;;
24517;SDS011;12678;51.336;12.406;2023-03-14T02:39:14;0.50;;;0.50;;
24517;SDS011;12678;51.336;12.406;2023-03-14T02:41:44;0.55;;;0.55;;
24517;SDS011;12678;51.336;12.406;2023-03-14T02:44:13;3.85;;;0.70;;
24517;SDS011;12678;51.336;12.406;2023-03-14T02:46:39;2.50;;;0.50;;
24517;SDS011;12678;51.336;12.406;2023-03-14T02:49:07;0.50;;;0.50;;
24517;SDS011;12678;51.336;12.406;2023-03-14T02:51:35;0.82;;;0.68;;
24517;SDS011;12678;51.336;12.406;2023-03-14T02:54:02;0.75;;;0.60;;
24517;SDS011;12678;51.336;12.406;2023-03-14T02:56:28;0.55;;;0.55;;
24517;SDS011;12678;51.336;12.406;2023-03-14T02:58:54;0.98;;;0.60;;
24517;SDS011;12678;51.336;12.406;2023-03-14T03:01:19;0.85;;;0.43;;
24517;SDS011;12678;51.336;12.406;2023-03-14T03:03:45;0.30;;;0.30;;
24517;SDS011;12678;51.336;12.406;2023-03-14T03:06:10;0.40;;;0.40;;
24517;SDS011;12678;51.336;12.406;2023-03-14T03:08:36;0.55;;;0.55;;
24517;SDS011;12678;51.336;12.406;2023-03-14T03:11:02;0.50;;;0.50;;
24517;SDS011;12678;51.336;12.406;2023-03-14T03:13:28;0.40;;;0.40;;
24517;SDS011;12678;51.336;12.406;2023-03-14T03:15:54;4.95;;;0.63;;
24517;SDS011;12678;51.336;12.406;2023-03-14T03:18:20;7.10;;;0.80;;
24517;SDS011;12678;51.336;12.406;2023-03-14T03:20:46;0.50;;;0.50;;
24517;SDS011;12678;51.336;12.406;2023-03-14T03:23:12;1.08;;;0.55;;
24517;SDS011;12678;51.336;12.406;2023-03-14T03:25:38;0.70;;;0.70;;
24517;SDS011;12678;51.336;12.406;2023-03-14T03:28:03;1.80;;;0.75;;
24517;SDS011;12678;51.336;12.406;2023-03-14T03:30:33;0.90;;;0.60;;
24517;SDS011;12678;51.336;12.406;2023-03-14T03:33:02;0.93;;;0.73;;
24517;SDS011;12678;51.336;12.406;2023-03-14T03:35:28;2.25;;;0.60;;
24517;SDS011;12678;51.336;12.406;2023-03-14T03:37:54;1.17;;;0.70;;
24517;SDS011;12678;51.336;12.406;2023-03-14T03:40:19;1.42;;;0.50;;
24517;SDS011;12678;51.336;12.406;2023-03-14T03:42:46;0.57;;;0.57;;
24517;SDS011;12678;51.336;12.406;2023-03-14T03:45:12;0.70;;;0.70;;
24517;SDS011;12678;51.336;12.406;2023-03-14T03:47:37;1.40;;;0.85;;
24517;SDS011;12678;51.336;12.406;2023-03-14T03:50:03;1.17;;;0.60;;
24517;SDS011;12678;51.336;12.406;2023-03-14T03:52:29;0.50;;;0.50;;
24517;SDS011;12678;51.336;12.406;2023-03-14T03:54:55;0.35;;;0.35;;
24517;SDS011;12678;51.336;12.406;2023-03-14T03:57:21;1.27;;;0.50;;
24517;SDS011;12678;51.336;12.406;2023-03-14T03:59:46;0.82;;;0.55;;
24517;SDS011;12678;51.336;12.406;2023-03-14T04:02:12;1.10;;;1.00;;
24517;SDS011;12678;51.336;12.406;2023-03-14T04:04:38;2.75;;;1.63;;
24517;SDS011;12678;51.336;12.406;2023-03-14T04:07:03;3.40;;;1.95;;
24517;SDS011;12678;51.336;12.406;2023-03-14T04:09:29;5.85;;;2.33;;
24517;SDS011;12678;51.336;12.406;2023-03-14T04:11:55;2.78;;;1.60;;
24517;SDS011;12678;51.336;12.406;2023-03-14T04:14:21;1.80;;;1.25;;
24517;SDS011;12678;51.336;12.406;2023-03-14T04:16:47;1.67;;;1.05;;
24517;SDS011;12678;51.336;12.406;2023-03-14T04:19:13;3.40;;;1.13;;
24517;SDS011;12678;51.336;12.406;2023-03-14T04:21:39;4.88;;;1.48;;
24517;SDS011;12678;51.336;12.406;2023-03-14T04:24:11;0.80;;;0.63;;
24517;SDS011;12678;51.336;12.406;2023-03-14T04:26:37;3.92;;;2.15;;
24517;SDS011;12678;51.336;12.406;2023-03-14T04:29:03;1.25;;;0.80;;
24517;SDS011;12678;51.336;12.406;2023-03-14T04:31:29;1.85;;;1.17;;
24517;SDS011;12678;51.336;12.406;2023-03-14T04:33:54;2.55;;;1.65;;
24517;SDS011;12678;51.336;12.406;2023-03-14T04:36:20;1.98;;;1.08;;
24517;SDS011;12678;51.336;12.406;2023-03-14T04:38:45;2.60;;;0.73;;
24517;SDS011;12678;51.336;12.406;2023-03-14T04:41:11;1.83;;;1.02;;
24517;SDS011;12678;51.336;12.406;2023-03-14T04:43:36;3.08;;;1.40;;
24517;SDS011;12678;51.336;12.406;2023-03-14T04:46:02;5.13;;;3.35;;
24517;SDS011;12678;51.336;12.406;2023-03-14T04:48:28;3.50;;;2.65;;
24517;SDS011;12678;51.336;12.406;2023-03-14T04:50:54;4.47;;;3.13;;
24517;SDS011;12678;51.336;12.406;2023-03-14T04:53:19;4.43;;;3.28;;
24517;SDS011;12678;51.336;12.406;2023-03-14T04:55:53;5.70;;;3.58;;
24517;SDS011;12678;51.336;12.406;2023-03-14T04:58:20;8.50;;;2.92;;
24517;SDS011;12678;51.336;12.406;2023-03-14T05:00:47;2.83;;;1.83;;
24517;SDS011;12678;51.336;12.406;2023-03-14T05:03:14;11.73;;;7.63;;
24517;SDS011;12678;51.336;12.406;2023-03-14T05:05:41;4.28;;;3.20;;
24517;SDS011;12678;51.336;12.406;2023-03-14T05:08:06;10.52;;;6.35;;
24517;SDS011;12678;51.336;12.406;2023-03-14T05:10:32;14.50;;;9.18;;
24517;SDS011;12678;51.336;12.406;2023-03-14T05:12:58;6.70;;;4.30;;
24517;SDS011;12678;51.336;12.406;2023-03-14T05:15:24;11.25;;;6.93;;
24517;SDS011;12678;51.336;12.406;2023-03-14T05:17:49;23.23;;;10.27;;
24517;SDS011;12678;51.336;12.406;2023-03-14T05:20:15;22.45;;;13.75;;
24517;SDS011;12678;51.336;12.406;2023-03-14T05:22:41;4.20;;;2.42;;
24517;SDS011;12678;51.336;12.406;2023-03-14T05:25:07;5.60;;;4.15;;
24517;SDS011;12678;51.336;12.406;2023-03-14T05:27:33;6.50;;;3.97;;
24517;SDS011;12678;51.336;12.406;2023-03-14T05:29:59;9.48;;;4.47;;
24517;SDS011;12678;51.336;12.406;2023-03-14T05:32:24;15.50;;;9.30;;
24517;SDS011;12678;51.336;12.406;2023-03-14T05:34:50;6.53;;;4.03;;
24517;SDS011;12678;51.336;12.406;2023-03-14T05:37:16;22.33;;;7.18;;
24517;SDS011;12678;51.336;12.406;2023-03-14T05:39:41;12.00;;;5.00;;
24517;SDS011;12678;51.336;12.406;2023-03-14T05:42:07;6.63;;;4.78;;
24517;SDS011;12678;51.336;12.406;2023-03-14T05:44:32;4.43;;;2.50;;
24517;SDS011;12678;51.336;12.406;2023-03-14T05:47:00;11.60;;;7.20;;
24517;SDS011;12678;51.336;12.406;2023-03-14T05:49:25;18.45;;;12.52;;
24517;SDS011;12678;51.336;12.406;2023-03-14T05:51:51;4.40;;;3.40;;
24517;SDS011;12678;51.336;12.406;2023-03-14T05:54:17;8.65;;;5.10;;
24517;SDS011;12678;51.336;12.406;2023-03-14T05:56:42;2.85;;;1.48;;
24517;SDS011;12678;51.336;12.406;2023-03-14T05:59:08;7.40;;;5.20;;
24517;SDS011;12678;51.336;12.406;2023-03-14T06:01:34;5.88;;;2.35;;
24517;SDS011;12678;51.336;12.406;2023-03-14T06:04:00;10.27;;;2.25;;
24517;SDS011;12678;51.336;12.406;2023-03-14T06:06:26;10.95;;;3.10;;
24517;SDS011;12678;51.336;12.406;2023-03-14T06:08:52;3.03;;;1.70;;
24517;SDS011;12678;51.336;12.406;2023-03-14T06:11:19;3.65;;;1.65;;
24517;SDS011;12678;51.336;12.406;2023-03-14T06:13:44;5.45;;;2.38;;
24517;SDS011;12678;51.336;12.406;2023-03-14T06:16:11;7.07;;;1.10;;
24517;SDS011;12678;51.336;12.406;2023-03-14T06:18:36;2.70;;;1.10;;
24517;SDS011;12678;51.336;12.406;2023-03-14T06:21:02;3.22;;;1.27;;
24517;SDS011;12678;51.336;12.406;2023-03-14T06:23:28;4.22;;;1.20;;
24517;SDS011;12678;51.336;12.406;2023-03-14T06:25:56;3.60;;;0.93;;
24517;SDS011;12678;51.336;12.406;2023-03-14T06:28:22;1.35;;;0.82;;
24517;SDS011;12678;51.336;12.406;2023-03-14T06:30:48;1.23;;;0.93;;
24517;SDS011;12678;51.336;12.406;2023-03-14T06:33:13;2.95;;;1.13;;
24517;SDS011;12678;51.336;12.406;2023-03-14T06:35:39;6.93;;;1.15;;
24517;SDS011;12678;51.336;12.406;2023-03-14T06:38:04;2.33;;;1.15;;
24517;SDS011;12678;51.336;12.406;2023-03-14T06:40:30;1.90;;;0.80;;
24517;SDS011;12678;51.336;12.406;2023-03-14T06:42:56;5.53;;;1.90;;
24517;SDS011;12678;51.336;12.406;2023-03-14T06:45:22;1.95;;;0.90;;
24517;SDS011;12678;51.336;12.406;2023-03-14T06:47:48;2.05;;;1.00;;
24517;SDS011;12678;51.336;12.406;2023-03-14T06:50:14;2.55;;;1.08;;
24517;SDS011;12678;51.336;12.406;2023-03-14T06:52:39;4.90;;;1.27;;
24517;SDS011;12678;51.336;12.406;2023-03-14T06:55:10;1.85;;;1.42;;
24517;SDS011;12678;51.336;12.406;2023-03-14T06:57:36;1.90;;;0.68;;
24517;SDS011;12678;51.336;12.406;2023-03-14T07:00:02;1.77;;;0.55;;
24517;SDS011;12678;51.336;12.406;2023-03-14T07:02:29;3.53;;;0.90;;
24517;SDS011;12678;51.336;12.406;2023-03-14T07:04:55;1.42;;;0.90;;
24517;SDS011;12678;51.336;12.406;2023-03-14T07:07:21;1.65;;;0.95;;
24517;SDS011;12678;51.336;12.406;2023-03-14T07:09:47;1.98;;;1.00;;
24517;SDS011;12678;51.336;12.406;2023-03-14T07:12:12;5.20;;;1.05;;
24517;SDS011;12678;51.336;12.406;2023-03-14T07:14:38;3.85;;;1.77;;
24517;SDS011;12678;51.336;12.406;2023-03-14T07:17:03;2.90;;;1.00;;
24517;SDS011;12678;51.336;12.406;2023-03-14T07:19:29;1.90;;;0.82;;
24517;SDS011;12678;51.336;12.406;2023-03-14T07:21:55;2.15;;;0.90;;
24517;SDS011;12678;51.336;12.406;2023-03-14T07:24:21;1.15;;;0.70;;
24517;SDS011;12678;51.336;12.406;2023-03-14T07:26:46;2.78;;;0.80;;
24517;SDS011;12678;51.336;12.406;2023-03-14T07:29:12;7.10;;;1.17;;
24517;SDS011;12678;51.336;12.406;2023-03-14T07:31:37;6.05;;;1.17;;
24517;SDS011;12678;51.336;12.406;2023-03-14T07:34:03;1.10;;;0.93;;
24517;SDS011;12678;51.336;12.406;2023-03-14T07:36:28;11.50;;;1.00;;
24517;SDS011;12678;51.336;12.406;2023-03-14T07:38:54;2.92;;;0.75;;
24517;SDS011;12678;51.336;12.406;2023-03-14T07:41:19;1.13;;;0.80;;
24517;SDS011;12678;51.336;12.406;2023-03-14T07:43:46;1.40;;;0.85;;
24517;SDS011;12678;51.336;12.406;2023-03-14T07:46:11;3.10;;;1.13;;
24517;SDS011;12678;51.336;12.406;2023-03-14T07:48:37;4.68;;;1.90;;
24517;SDS011;12678;51.336;12.406;2023-03-14T07:51:03;10.40;;;4.38;;
24517;SDS011;12678;51.336;12.406;2023-03-14T07:53:29;3.22;;;1.85;;
24517;SDS011;12678;51.336;12.406;2023-03-14T07:55:55;3.45;;;1.92;;
24517;SDS011;12678;51.336;12.406;2023-03-14T07:58:20;1.88;;;1.17;;
24517;SDS011;12678;51.336;12.406;2023-03-14T08:00:47;3.45;;;1.23;;
24517;SDS011;12678;51.336;12.406;2023-03-14T08:03:13;2.30;;;0.77;;
24517;SDS011;12678;51.336;12.406;2023-03-14T08:05:39;2.97;;;1.33;;
24517;SDS011;12678;51.336;12.406;2023-03-14T08:08:05;1.70;;;1.20;;
24517;SDS011;12678;51.336;12.406;2023-03-14T08:10:31;4.88;;;1.40;;
24517;SDS011;12678;51.336;12.406;2023-03-14T08:12:59;6.80;;;1.40;;
24517;SDS011;12678;51.336;12.406;2023-03-14T08:15:26;3.42;;;1.45;;
24517;SDS011;12678;51.336;12.406;2023-03-14T08:17:53;2.17;;;1.35;;
24517;SDS011;12678;51.336;12.406;2023-03-14T08:20:20;4.00;;;2.00;;
24517;SDS011;12678;51.336;12.406;2023-03-14T08:22:57;5.85;;;3.22;;
24517;SDS011;12678;51.336;12.406;2023-03-14T08:25:25;2.78;;;1.35;;
24517;SDS011;12678;51.336;12.406;2023-03-14T08:27:51;6.90;;;3.05;;
24517;SDS011;12678;51.336;12.406;2023-03-14T08:30:18;9.50;;;2.30;;
24517;SDS011;12678;51.336;12.406;2023-03-14T08:32:45;2.70;;;1.90;;
24517;SDS011;12678;51.336;12.406;2023-03-14T08:35:11;3.63;;;1.88;;
24517;SDS011;12678;51.336;12.406;2023-03-14T08:37:37;10.52;;;3.67;;
24517;SDS011;12678;51.336;12.406;2023-03-14T08:40:04;6.28;;;3.42;;
24517;SDS011;12678;51.336;12.406;2023-03-14T08:42:35;5.00;;;2.22;;
24517;SDS011;12678;51.336;12.406;2023-03-14T08:45:01;4.22;;;2.58;;
24517;SDS011;12678;51.336;12.406;2023-03-14T08:47:28;4.78;;;2.50;;
24517;SDS011;12678;51.336;12.406;2023-03-14T08:49:54;3.63;;;2.40;;
24517;SDS011;12678;51.336;12.406;2023-03-14T08:52:20;5.05;;;2.90;;
24517;SDS011;12678;51.336;12.406;2023-03-14T08:54:45;6.85;;;2.70;;
24517;SDS011;12678;51.336;12.406;2023-03-14T08:57:11;3.83;;;2.22;;
24517;SDS011;12678;51.336;12.406;2023-03-14T08:59:37;4.80;;;0.95;;
24517;SDS011;12678;51.336;12.406;2023-03-14T09:02:03;3.10;;;0.95;;
24517;SDS011;12678;51.336;12.406;2023-03-14T09:04:29;1.23;;;0.68;;
24517;SDS011;12678;51.336;12.406;2023-03-14T09:06:55;4.32;;;1.25;;
24517;SDS011;12678;51.336;12.406;2023-03-14T09:09:23;1.65;;;0.70;;
24517;SDS011;12678;51.336;12.406;2023-03-14T09:11:57;2.28;;;0.73;;
24517;SDS011;12678;51.336;12.406;2023-03-14T09:14:23;1.52;;;0.90;;
24517;SDS011;12678;51.336;12.406;2023-03-14T09:16:49;0.40;;;0.40;;
24517;SDS011;12678;51.336;12.406;2023-03-14T09:19:15;2.30;;;0.80;;
24517;SDS011;12678;51.336;12.406;2023-03-14T09:21:41;0.98;;;0.45;;
24517;SDS011;12678;51.336;12.406;2023-03-14T09:24:07;8.02;;;0.60;;
24517;SDS011;12678;51.336;12.406;2023-03-14T09:26:32;2.38;;;0.65;;
24517;SDS011;12678;51.336;12.406;2023-03-14T09:28:58;3.92;;;0.85;;
24517;SDS011;12678;51.336;12.406;2023-03-14T09:31:24;4.55;;;0.65;;
24517;SDS011;12678;51.336;12.406;2023-03-14T09:33:50;3.22;;;1.10;;
24517;SDS011;12678;51.336;12.406;2023-03-14T09:36:16;1.25;;;1.02;;
24517;SDS011;12678;51.336;12.406;2023-03-14T09:38:41;3.90;;;2.53;;
24517;SDS011;12678;51.336;12.406;2023-03-14T09:41:16;2.83;;;0.70;;
24517;SDS011;12678;51.336;12.406;2023-03-14T09:47:04;7.78;;;3.38;;
24517;SDS011;12678;51.336;12.406;2023-03-14T09:49:41;3.65;;;1.88;;
24517;SDS011;12678;51.336;12.406;2023-03-14T09:52:18;2.53;;;1.85;;
24517;SDS011;12678;51.336;12.406;2023-03-14T09:54:57;5.22;;;2.72;;
24517;SDS011;12678;51.336;12.406;2023-03-14T09:57:32;3.00;;;1.40;;
24517;SDS011;12678;51.336;12.406;2023-03-14T10:00:03;2.17;;;0.80;;
24517;SDS011;12678;51.336;12.406;2023-03-14T10:02:39;1.73;;;0.80;;
24517;SDS011;12678;51.336;12.406;2023-03-14T10:05:17;4.20;;;1.60;;
24517;SDS011;12678;51.336;12.406;2023-03-14T10:07:44;0.50;;;0.47;;
24517;SDS011;12678;51.336;12.406;2023-03-14T10:10:13;1.02;;;0.50;;
24517;SDS011;12678;51.336;12.406;2023-03-14T10:15:11;2.42;;;1.73;;
24517;SDS011;12678;51.336;12.406;2023-03-14T10:17:49;2.25;;;0.95;;
24517;SDS011;12678;51.336;12.406;2023-03-14T10:22:57;2.53;;;0.85;;
24517;SDS011;12678;51.336;12.406;2023-03-14T10:25:27;5.28;;;1.17;;
24517;SDS011;12678;51.336;12.406;2023-03-14T10:28:01;8.52;;;1.50;;
24517;SDS011;12678;51.336;12.406;2023-03-14T10:30:44;3.72;;;1.35;;
24517;SDS011;12678;51.336;12.406;2023-03-14T10:35:45;6.22;;;3.38;;
24517;SDS011;12678;51.336;12.406;2023-03-14T10:38:17;2.17;;;1.30;;
24517;SDS011;12678;51.336;12.406;2023-03-14T10:40:50;1.23;;;0.73;;
24517;SDS011;12678;51.336;12.406;2023-03-14T10:46:15;3.13;;;1.65;;
24517;SDS011;12678;51.336;12.406;2023-03-14T10:48:43;0.90;;;0.63;;
24517;SDS011;12678;51.336;12.406;2023-03-14T10:54:02;3.95;;;1.70;;
24517;SDS011;12678;51.336;12.406;2023-03-14T10:56:38;1.80;;;1.05;;
24517;SDS011;12678;51.336;12.406;2023-03-14T10:59:07;1.98;;;1.50;;
24517;SDS011;12678;51.336;12.406;2023-03-14T11:01:43;1.95;;;0.85;;
24517;SDS011;12678;51.336;12.406;2023-03-14T11:10:23;1.67;;;1.42;;
24517;SDS011;12678;51.336;12.406;2023-03-14T11:18:36;3.40;;;1.98;;
24517;SDS011;12678;51.336;12.406;2023-03-14T11:24:08;1.80;;;1.50;;
24517;SDS011;12678;51.336;12.406;2023-03-14T11:32:44;1.80;;;1.25;;
24517;SDS011;12678;51.336;12.406;2023-03-14T11:37:52;1.90;;;1.50;;
24517;SDS011;12678;51.336;12.406;2023-03-14T11:40:41;0.93;;;0.70;;
24517;SDS011;12678;51.336;12.406;2023-03-14T11:45:45;1.30;;;1.00;;
24517;SDS011;12678;51.336;12.406;2023-03-14T11:48:20;1.27;;;0.85;;
24517;SDS011;12678;51.336;12.406;2023-03-14T11:51:01;3.92;;;0.73;;
24517;SDS011;12678;51.336;12.406;2023-03-14T11:53:50;1.08;;;0.63;;
24517;SDS011;12678;51.336;12.406;2023-03-14T11:56:31;0.57;;;0.50;;
24517;SDS011;12678;51.336;12.406;2023-03-14T11:59:04;1.02;;;0.70;;
24517;SDS011;12678;51.336;12.406;2023-03-14T12:01:40;0.63;;;0.40;;
24517;SDS011;12678;51.336;12.406;2023-03-14T12:07:08;0.88;;;0.70;;
24517;SDS011;12678;51.336;12.406;2023-03-14T12:09:49;0.50;;;0.50;;
24517;SDS011;12678;51.336;12.406;2023-03-14T12:12:19;0.65;;;0.43;;
24517;SDS011;12678;51.336;12.406;2023-03-14T12:15:05;0.55;;;0.50;;
24517;SDS011;12678;51.336;12.406;2023-03-14T12:17:43;4.47;;;2.80;;
24517;SDS011;12678;51.336;12.406;2023-03-14T12:20:17;0.60;;;0.60;;
24517;SDS011;12678;51.336;12.406;2023-03-14T12:25:29;1.08;;;0.40;;
24517;SDS011;12678;51.336;12.406;2023-03-14T12:35:43;0.80;;;0.80;;
24517;SDS011;12678;51.336;12.406;2023-03-14T12:41:14;1.55;;;0.63;;
24517;SDS011;12678;51.336;12.406;2023-03-14T12:43:40;1.42;;;0.70;;
24517;SDS011;12678;51.336;12.406;2023-03-14T12:46:06;0.52;;;0.52;;
24517;SDS011;12678;51.336;12.406;2023-03-14T12:48:50;4.40;;;0.30;;
24517;SDS011;12678;51.336;12.406;2023-03-14T12:51:29;0.50;;;0.40;;
24517;SDS011;12678;51.336;12.406;2023-03-14T12:54:20;0.73;;;0.60;;
24517;SDS011;12678;51.336;12.406;2023-03-14T12:59:37;2.90;;;0.73;;
24517;SDS011;12678;51.336;12.406;2023-03-14T13:04:45;1.27;;;0.50;;
24517;SDS011;12678;51.336;12.406;2023-03-14T13:10:00;2.67;;;0.30;;
24517;SDS011;12678;51.336;12.406;2023-03-14T13:12:53;0.30;;;0.30;;
24517;SDS011;12678;51.336;12.406;2023-03-14T13:15:39;0.50;;;0.50;;
24517;SDS011;12678;51.336;12.406;2023-03-14T13:18:10;0.80;;;0.50;;
24517;SDS011;12678;51.336;12.406;2023-03-14T13:21:19;2.33;;;0.60;;
24517;SDS011;12678;51.336;12.406;2023-03-14T13:24:00;0.38;;;0.38;;
24517;SDS011;12678;51.336;12.406;2023-03-14T13:26:38;0.50;;;0.50;;
24517;SDS011;12678;51.336;12.406;2023-03-14T13:31:48;0.50;;;0.50;;
24517;SDS011;12678;51.336;12.406;2023-03-14T13:34:16;0.35;;;0.35;;
24517;SDS011;12678;51.336;12.406;2023-03-14T13:36:42;0.30;;;0.30;;
24517;SDS011;12678;51.336;12.406;2023-03-14T13:39:17;0.30;;;0.30;;
24517;SDS011;12678;51.336;12.406;2023-03-14T13:41:45;1.08;;;0.30;;
24517;SDS011;12678;51.336;12.406;2023-03-14T13:44:27;0.45;;;0.30;;
24517;SDS011;12678;51.336;12.406;2023-03-14T13:47:02;1.17;;;0.30;;
24517;SDS011;12678;51.336;12.406;2023-03-14T13:49:30;0.57;;;0.30;;
24517;SDS011;12678;51.336;12.406;2023-03-14T13:52:00;0.28;;;0.20;;
24517;SDS011;12678;51.336;12.406;2023-03-14T13:54:27;1.17;;;0.50;;
24517;SDS011;12678;51.336;12.406;2023-03-14T13:56:59;0.45;;;0.40;;
24517;SDS011;12678;51.336;12.406;2023-03-14T13:59:27;0.80;;;0.32;;
24517;SDS011;12678;51.336;12.406;2023-03-14T14:01:55;2.78;;;0.50;;
24517;SDS011;12678;51.336;12.406;2023-03-14T14:04:23;0.50;;;0.50;;
24517;SDS011;12678;51.336;12.406;2023-03-14T14:06:55;0.80;;;0.47;;
24517;SDS011;12678;51.336;12.406;2023-03-14T14:09:30;0.70;;;0.32;;
24517;SDS011;12678;51.336;12.406;2023-03-14T14:12:06;0.28;;;0.25;;
24517;SDS011;12678;51.336;12.406;2023-03-14T14:14:43;0.55;;;0.50;;
24517;SDS011;12678;51.336;12.406;2023-03-14T14:17:14;0.30;;;0.30;;
24517;SDS011;12678;51.336;12.406;2023-03-14T14:19:43;0.52;;;0.52;;
24517;SDS011;12678;51.336;12.406;2023-03-14T14:22:10;0.40;;;0.40;;
24517;SDS011;12678;51.336;12.406;2023-03-14T14:24:37;0.30;;;0.30;;
24517;SDS011;12678;51.336;12.406;2023-03-14T14:27:13;1.05;;;0.47;;
24517;SDS011;12678;51.336;12.406;2023-03-14T14:30:03;1.30;;;0.65;;
24517;SDS011;12678;51.336;12.406;2023-03-14T14:32:47;0.50;;;0.50;;
24517;SDS011;12678;51.336;12.406;2023-03-14T14:35:33;1.85;;;0.63;;
24517;SDS011;12678;51.336;12.406;2023-03-14T14:38:00;1.02;;;0.57;;
24517;SDS011;12678;51.336;12.406;2023-03-14T14:40:27;0.63;;;0.43;;
24517;SDS011;12678;51.336;12.406;2023-03-14T14:42:55;0.38;;;0.30;;
24517;SDS011;12678;51.336;12.406;2023-03-14T14:45:27;1.25;;;0.57;;
24517;SDS011;12678;51.336;12.406;2023-03-14T14:47:54;0.45;;;0.45;;
24517;SDS011;12678;51.336;12.406;2023-03-14T14:50:30;1.27;;;0.57;;
24517;SDS011;12678;51.336;12.406;2023-03-14T14:52:59;2.35;;;0.65;;
24517;SDS011;12678;51.336;12.406;2023-03-14T14:55:31;0.68;;;0.43;;
24517;SDS011;12678;51.336;12.406;2023-03-14T14:57:59;3.20;;;0.60;;
24517;SDS011;12678;51.336;12.406;2023-03-14T15:00:39;3.13;;;0.90;;
24517;SDS011;12678;51.336;12.406;2023-03-14T15:03:12;0.60;;;0.60;;
24517;SDS011;12678;51.336;12.406;2023-03-14T15:05:40;1.50;;;0.45;;
24517;SDS011;12678;51.336;12.406;2023-03-14T15:08:11;3.88;;;0.65;;
24517;SDS011;12678;51.336;12.406;2023-03-14T15:10:37;0.82;;;0.47;;
24517;SDS011;12678;51.336;12.406;2023-03-14T15:13:03;0.40;;;0.40;;
24517;SDS011;12678;51.336;12.406;2023-03-14T15:15:29;2.70;;;1.42;;
24517;SDS011;12678;51.336;12.406;2023-03-14T15:17:55;1.63;;;0.70;;
24517;SDS011;12678;51.336;12.406;2023-03-14T15:20:21;3.38;;;0.98;;
24517;SDS011;12678;51.336;12.406;2023-03-14T15:22:48;4.10;;;1.10;;
24517;SDS011;12678;51.336;12.406;2023-03-14T15:25:14;1.25;;;1.05;;
24517;SDS011;12678;51.336;12.406;2023-03-14T15:27:40;5.65;;;1.77;;
24517;SDS011;12678;51.336;12.406;2023-03-14T15:30:11;1.05;;;0.95;;
24517;SDS011;12678;51.336;12.406;2023-03-14T15:32:38;2.67;;;1.27;;
24517;SDS011;12678;51.336;12.406;2023-03-14T15:35:03;1.20;;;1.05;;
24517;SDS011;12678;51.336;12.406;2023-03-14T15:37:29;1.23;;;0.77;;
24517;SDS011;12678;51.336;12.406;2023-03-14T15:39:55;1.50;;;0.75;;
24517;SDS011;12678;51.336;12.406;2023-03-14T15:42:24;0.93;;;0.80;;
24517;SDS011;12678;51.336;12.406;2023-03-14T15:44:49;0.60;;;0.60;;
24517;SDS011;12678;51.336;12.406;2023-03-14T15:47:15;0.55;;;0.55;;
24517;SDS011;12678;51.336;12.406;2023-03-14T15:49:41;1.25;;;0.82;;
24517;SDS011;12678;51.336;12.406;2023-03-14T15:52:07;1.65;;;1.15;;
24517;SDS011;12678;51.336;12.406;2023-03-14T15:54:33;0.60;;;0.60;;
24517;SDS011;12678;51.336;12.406;2023-03-14T15:56:59;0.50;;;0.50;;